Time;durP1;ratioP1;P1;durP2;ratioP2;P2;SDS_P1;SDS_P2;PMS_P1;PMS_P2;Temp;Humidity;BMP_temperature;BMP_pressure;BME280_temperature;BME280_humidity;BME280_pressure;Samples;Min_cycle;Max_cycle;Signal;HPM_P1;HPM_P2
2023/05/16 00:01:13;;;;;;;;;;;;;;;-147.27;100.00;65176.34;5104512;28;19920;-51
2023/05/16 00:03:39;;;;;;;;;;;;;;;-147.27;100.00;65176.34;5103647;28;21236;-52
2023/05/16 00:06:04;;;;;;;;;;;;;;;-147.27;100.00;65176.34;5108676;28;19920;-49
2023/05/16 00:08:30;;;;;;;;;;;;;;;-147.27;100.00;65176.34;5113690;28;19916;-51
2023/05/16 00:10:56;;;;;;;;;;;;;;;-147.27;100.00;65176.34;5114323;28;19924;-50
2023/05/16 00:13:24;;;;;;;;;;;;;;;-147.27;100.00;65176.34;5113100;28;19992;-53
2023/05/16 00:15:50;;;;;;;;;;;;;;;-147.27;100.00;65176.34;5113863;28;19960;-51
2023/05/16 00:18:18;;;;;;;;;;;;;;;-147.27;100.00;65176.34;5113073;28;19937;-49
2023/05/16 00:20:44;;;;;;;;;;;;;;;-147.27;100.00;65176.34;5112221;28;19943;-52
2023/05/16 00:23:11;;;;;;;;;;;;;;;-147.27;100.00;65176.34;5110887;28;19920;-52
2023/05/16 00:25:37;;;;;;;;;;;;;;;-147.27;100.00;65176.34;5113324;28;20086;-51
2023/05/16 00:28:03;;;;;;;;;;;;;;;-147.27;100.00;65176.34;5109784;28;19916;-52
2023/05/16 00:30:29;;;;;;;;;;;;;;;-147.27;100.00;65176.34;5113153;28;19916;-48
2023/05/16 00:32:55;;;;;;;;;;;;;;;-147.27;100.00;65176.34;5090039;28;19924;-52
2023/05/16 00:35:22;;;;;;;;;;;;;;;-147.27;100.00;65176.34;5114024;28;20013;-50
2023/05/16 00:37:48;;;;;;;;;;;;;;;-147.27;100.00;65176.34;5109115;28;19924;-53
2023/05/16 00:40:14;;;;;;;;;;;;;;;-147.27;100.00;65176.34;5112147;28;19916;-52
2023/05/16 00:42:41;;;;;;;;;;;;;;;-147.27;100.00;65176.34;5109129;28;19976;-50
2023/05/16 00:45:07;;;;;;;;;;;;;;;-147.27;100.00;65176.34;5113771;28;19939;-53
2023/05/16 00:47:33;;;;;;;;;;;;;;;-147.27;100.00;65176.34;5095183;28;19916;-55
2023/05/16 00:49:58;;;;;;;;;;;;;;;-147.27;100.00;65176.34;5115471;28;19942;-52
2023/05/16 00:52:24;;;;;;;;;;;;;;;-147.27;100.00;65176.34;5114219;28;19917;-51
2023/05/16 00:54:50;;;;;;;;;;;;;;;-147.27;100.00;65176.34;5121502;28;19985;-54
2023/05/16 00:57:15;;;;;;;;;;;;;;;-147.27;100.00;65176.34;5125101;28;19915;-52
2023/05/16 00:59:43;;;;;;;;;;;;;;;-147.27;100.00;65176.34;5123456;28;19959;-47
2023/05/16 01:02:09;;;;;;;;;;;;;;;-147.27;100.00;65176.34;5121418;28;19921;-48
2023/05/16 01:04:35;;;;;;;;;;;;;;;-147.27;100.00;65176.34;5126304;28;19927;-47
2023/05/16 01:07:01;;;;;;;;;;;;;;;-147.27;100.00;65176.34;5120165;28;19916;-50
2023/05/16 01:09:27;;;;;;;;;;;;;;;-147.27;100.00;65176.34;5121345;28;19916;-50
2023/05/16 01:12:11;;;;;;;;;;;;;;;-147.27;100.00;65176.34;5123023;28;19916;-49
2023/05/16 01:14:37;;;;;;;;;;;;;;;-147.27;100.00;65176.34;5124776;28;19916;-49
2023/05/16 01:17:07;;;;;;;;;;;;;;;-147.27;100.00;65176.34;5121299;28;19916;-53
2023/05/16 01:19:51;;;;;;;;;;;;;;;-147.27;100.00;65176.34;5120520;28;19923;-49
2023/05/16 01:22:29;;;;;;;;;;;;;;;-147.27;100.00;65176.34;5125036;28;19920;-52
2023/05/16 01:25:08;;;;;;;;;;;;;;;-147.27;100.00;65176.34;5125998;28;20025;-53
2023/05/16 01:27:34;;;;;;;;;;;;;;;-147.27;100.00;65176.34;5119915;28;19948;-53
2023/05/16 01:30:09;;;;;;;;;;;;;;;-147.27;100.00;65176.34;5124060;28;19937;-51
2023/05/16 01:32:36;;;;;;;;;;;;;;;-147.27;100.00;65176.34;5121174;28;19940;-52
2023/05/16 01:35:01;;;;;;;;;;;;;;;-147.27;100.00;65176.34;5124247;28;19916;-51
2023/05/16 01:37:31;;;;;;;;;;;;;;;-147.27;100.00;65176.34;5124482;28;19912;-53
2023/05/16 01:40:04;;;;;;;;;;;;;;;-147.27;100.00;65176.34;5120584;28;19923;-49
2023/05/16 01:42:31;;;;;;;;;;;;;;;-147.27;100.00;65176.34;5119444;28;19912;-49
2023/05/16 01:45:19;;;;;;;;;;;;;;;-147.27;100.00;65176.34;5122538;28;19928;-50
2023/05/16 01:47:48;;;;;;;;;;;;;;;-147.27;100.00;65176.34;5122280;28;19955;-52
2023/05/16 01:50:16;;;;;;;;;;;;;;;-147.27;100.00;65176.34;5122447;28;19959;-54
2023/05/16 01:52:53;;;;;;;;;;;;;;;-147.27;100.00;65176.34;5121719;28;19912;-55
2023/05/16 01:55:31;;;;;;;;;;;;;;;-147.27;100.00;65176.34;5121014;28;19962;-50
2023/05/16 01:57:58;;;;;;;;;;;;;;;-147.27;100.00;65176.34;5121050;28;19948;-51
2023/05/16 02:00:23;;;;;;;;;;;;;;;-147.27;100.00;65176.34;5120620;28;19916;-52
2023/05/16 02:02:48;;;;;;;;;;;;;;;-147.27;100.00;65176.34;5122952;28;19915;-51
2023/05/16 02:05:15;;;;;;;;;;;;;;;-147.27;100.00;65176.34;5123299;28;19947;-52
2023/05/16 02:07:42;;;;;;;;;;;;;;;-147.27;100.00;65176.34;5119745;28;19927;-50
2023/05/16 02:10:07;;;;;;;;;;;;;;;-147.27;100.00;65176.34;5124127;28;19916;-51
2023/05/16 02:12:33;;;;;;;;;;;;;;;-147.27;100.00;65176.34;5100093;28;19948;-53
2023/05/16 02:14:59;;;;;;;;;;;;;;;-147.27;100.00;65176.34;5113625;28;19967;-52
2023/05/16 02:17:25;;;;;;;;;;;;;;;-147.27;100.00;65176.34;5115156;28;19916;-53
2023/05/16 02:19:51;;;;;;;;;;;;;;;-147.27;100.00;65176.34;5115950;28;19916;-53
2023/05/16 02:22:16;;;;;;;;;;;;;;;-147.27;100.00;65176.34;5119017;28;19943;-50
2023/05/16 02:24:42;;;;;;;;;;;;;;;-147.27;100.00;65176.34;5116117;28;19920;-51
2023/05/16 02:27:07;;;;;;;;;;;;;;;-147.27;100.00;65176.34;5113832;28;19986;-51
2023/05/16 02:29:34;;;;;;;;;;;;;;;-147.27;100.00;65176.34;5115816;28;19947;-50
2023/05/16 02:32:00;;;;;;;;;;;;;;;-147.27;100.00;65176.34;5114907;28;19916;-51
2023/05/16 02:34:25;;;;;;;;;;;;;;;-147.27;100.00;65176.34;5114373;28;19946;-50
2023/05/16 02:36:51;;;;;;;;;;;;;;;-147.27;100.00;65176.34;5121651;28;19991;-51
2023/05/16 02:39:16;;;;;;;;;;;;;;;-147.27;100.00;65176.34;5113817;28;19916;-52
2023/05/16 02:41:42;;;;;;;;;;;;;;;-147.27;100.00;65176.34;5116645;28;19923;-51
2023/05/16 02:44:07;;;;;;;;;;;;;;;-147.27;100.00;65176.34;5114904;28;20038;-50
2023/05/16 02:46:33;;;;;;;;;;;;;;;-147.27;100.00;65176.34;5118568;28;19927;-54
2023/05/16 02:48:59;;;;;;;;;;;;;;;-147.27;100.00;65176.34;5122737;28;19947;-53
2023/05/16 02:51:26;;;;;;;;;;;;;;;-147.27;100.00;65176.34;5115849;28;19921;-55
2023/05/16 02:53:52;;;;;;;;;;;;;;;-147.27;100.00;65176.34;5109628;28;20041;-52
2023/05/16 02:56:18;;;;;;;;;;;;;;;-147.27;100.00;65176.34;5120630;28;19924;-51
2023/05/16 02:58:46;;;;;;;;;;;;;;;-147.27;100.00;65176.34;5085053;28;19981;-51
2023/05/16 03:01:12;;;;;;;;;;;;;;;-147.27;100.00;65176.34;5106828;28;19912;-52
2023/05/16 03:03:37;;;;;;;;;;;;;;;-147.27;100.00;65176.34;5105373;28;19931;-51
2023/05/16 03:06:03;;;;;;;;;;;;;;;-147.27;100.00;65176.34;5112004;28;19916;-53
2023/05/16 03:08:28;;;;;;;;;;;;;;;-147.27;100.00;65176.34;5108347;28;19916;-49
2023/05/16 03:10:55;;;;;;;;;;;;;;;-147.27;100.00;65176.34;5110580;28;19916;-50
2023/05/16 03:13:21;;;;;;;;;;;;;;;-147.27;100.00;65176.34;5109621;28;19912;-51
2023/05/16 03:15:47;;;;;;;;;;;;;;;-147.27;100.00;65176.34;5091378;28;19983;-51
2023/05/16 03:18:12;;;;;;;;;;;;;;;-147.27;100.00;65176.34;5122774;28;19916;-51
2023/05/16 03:20:38;;;;;;;;;;;;;;;-147.27;100.00;65176.34;5092806;28;19908;-48
2023/05/16 03:23:07;;;;;;;;;;;;;;;-147.27;100.00;65176.34;5107490;28;19955;-49
2023/05/16 03:25:35;;;;;;;;;;;;;;;-147.27;100.00;65176.34;5105766;28;19924;-48
2023/05/16 03:28:00;;;;;;;;;;;;;;;-147.27;100.00;65176.34;5105161;28;19978;-49
2023/05/16 03:30:26;;;;;;;;;;;;;;;-147.27;100.00;65176.34;5108304;28;19927;-50
2023/05/16 03:32:52;;;;;;;;;;;;;;;-147.27;100.00;65176.34;5104808;28;19948;-46
2023/05/16 03:35:17;;;;;;;;;;;;;;;-147.27;100.00;65176.34;5074811;28;19916;-48
2023/05/16 03:37:43;;;;;;;;;;;;;;;-147.27;100.00;65176.34;5120688;28;19921;-48
2023/05/16 03:40:10;;;;;;;;;;;;;;;-147.27;100.00;65176.34;5088679;28;19926;-49
2023/05/16 03:42:35;;;;;;;;;;;;;;;-147.27;100.00;65176.34;5122089;28;19929;-48
2023/05/16 03:45:01;;;;;;;;;;;;;;;-147.27;100.00;65176.34;5105912;28;19935;-51
2023/05/16 03:47:30;;;;;;;;;;;;;;;-147.27;100.00;65176.34;5106448;28;19942;-52
2023/05/16 03:49:55;;;;;;;;;;;;;;;-147.27;100.00;65176.34;5110254;28;19917;-52
2023/05/16 03:52:21;;;;;;;;;;;;;;;-147.27;100.00;65176.34;5106291;28;19940;-52
2023/05/16 03:54:47;;;;;;;;;;;;;;;-147.27;100.00;65176.34;5117540;28;19965;-52
2023/05/16 03:57:12;;;;;;;;;;;;;;;-147.27;100.00;65176.34;5121526;28;19924;-51
2023/05/16 03:59:38;;;;;;;;;;;;;;;-147.27;100.00;65176.34;5124763;28;19922;-50
2023/05/16 04:02:03;;;;;;;;;;;;;;;-147.27;100.00;65176.34;5123875;28;19912;-51
2023/05/16 04:04:29;;;;;;;;;;;;;;;-147.27;100.00;65176.34;5124936;28;19926;-50
2023/05/16 04:06:54;;;;;;;;;;;;;;;-147.27;100.00;65176.34;5122243;28;19920;-49
2023/05/16 04:09:20;;;;;;;;;;;;;;;-147.27;100.00;65176.34;5126368;28;19919;-51
2023/05/16 04:11:45;;;;;;;;;;;;;;;-147.27;100.00;65176.34;5129025;28;19915;-50
2023/05/16 04:14:10;;;;;;;;;;;;;;;-147.27;100.00;65176.34;5126936;28;19941;-51
2023/05/16 04:16:36;;;;;;;;;;;;;;;-147.27;100.00;65176.34;5126096;28;19942;-52
2023/05/16 04:19:02;;;;;;;;;;;;;;;-147.27;100.00;65176.34;5125891;28;19976;-52
2023/05/16 04:21:28;;;;;;;;;;;;;;;-147.27;100.00;65176.34;5125889;28;19920;-52
2023/05/16 04:23:53;;;;;;;;;;;;;;;-147.27;100.00;65176.34;5128217;28;20003;-50
2023/05/16 04:26:20;;;;;;;;;;;;;;;-147.27;100.00;65176.34;5127245;28;19916;-50
2023/05/16 04:28:46;;;;;;;;;;;;;;;-147.27;100.00;65176.34;5123635;28;19924;-52
2023/05/16 04:31:13;;;;;;;;;;;;;;;-147.27;100.00;65176.34;5123635;28;19931;-54
2023/05/16 04:33:38;;;;;;;;;;;;;;;-147.27;100.00;65176.34;5126951;28;19923;-52
2023/05/16 04:36:04;;;;;;;;;;;;;;;-147.27;100.00;65176.34;5120849;28;19939;-55
2023/05/16 04:38:30;;;;;;;;;;;;;;;-147.27;100.00;65176.34;5123858;28;19916;-50
2023/05/16 04:40:56;;;;;;;;;;;;;;;-147.27;100.00;65176.34;5122961;28;19920;-51
2023/05/16 04:43:21;;;;;;;;;;;;;;;-147.27;100.00;65176.34;5122963;28;19927;-50
2023/05/16 04:45:47;;;;;;;;;;;;;;;-147.27;100.00;65176.34;5123180;28;19943;-50
2023/05/16 04:48:14;;;;;;;;;;;;;;;-147.27;100.00;65176.34;5128142;28;19939;-51
2023/05/16 04:50:40;;;;;;;;;;;;;;;-147.27;100.00;65176.34;5123921;28;19983;-52
2023/05/16 04:53:05;;;;;;;;;;;;;;;-147.27;100.00;65176.34;5125606;28;19923;-53
2023/05/16 04:55:31;;;;;;;;;;;;;;;-147.27;100.00;65176.34;5107973;28;19935;-50
2023/05/16 04:57:56;;;;;;;;;;;;;;;-147.27;100.00;65176.34;5114891;28;19931;-52
2023/05/16 05:00:22;;;;;;;;;;;;;;;-147.27;100.00;65176.34;5109235;28;19924;-51
2023/05/16 05:02:47;;;;;;;;;;;;;;;-147.27;100.00;65176.34;5110183;28;19983;-52
2023/05/16 05:05:13;;;;;;;;;;;;;;;-147.27;100.00;65176.34;5105893;28;19928;-51
2023/05/16 05:07:39;;;;;;;;;;;;;;;-147.27;100.00;65176.34;5109677;28;19923;-50
2023/05/16 05:10:06;;;;;;;;;;;;;;;-147.27;100.00;65176.34;5107517;28;19917;-51
2023/05/16 05:12:31;;;;;;;;;;;;;;;-147.27;100.00;65176.34;5109078;28;19931;-53
2023/05/16 05:14:57;;;;;;;;;;;;;;;-147.27;100.00;65176.34;5109398;28;19916;-53
2023/05/16 05:17:22;;;;;;;;;;;;;;;-147.27;100.00;65176.34;5112913;28;19987;-52
2023/05/16 05:19:48;;;;;;;;;;;;;;;-147.27;100.00;65176.34;5111350;28;19938;-49
2023/05/16 05:22:14;;;;;;;;;;;;;;;-147.27;100.00;65176.34;5111788;28;19923;-54
2023/05/16 05:24:39;;;;;;;;;;;;;;;-147.27;100.00;65176.34;5100064;28;19927;-53
2023/05/16 05:27:05;;;;;;;;;;;;;;;-147.27;100.00;65176.34;5107179;28;19920;-54
2023/05/16 05:29:30;;;;;;;;;;;;;;;-147.27;100.00;65176.34;5104791;28;19943;-52
2023/05/16 05:31:55;;;;;;;;;;;;;;;-147.27;100.00;65176.34;5106579;28;19927;-50
2023/05/16 05:34:20;;;;;;;;;;;;;;;-147.27;100.00;65176.34;5106129;28;19954;-53
2023/05/16 05:36:46;;;;;;;;;;;;;;;-147.27;100.00;65176.34;5105991;28;19947;-57
2023/05/16 05:39:11;;;;;;;;;;;;;;;-147.27;100.00;65176.34;5110640;28;19931;-54
2023/05/16 05:41:37;;;;;;;;;;;;;;;-147.27;100.00;65176.34;5108656;28;19916;-54
2023/05/16 05:44:02;;;;;;;;;;;;;;;-147.27;100.00;65176.34;5110140;28;19920;-54
2023/05/16 05:46:28;;;;;;;;;;;;;;;-147.27;100.00;65176.34;5108831;28;19979;-50
2023/05/16 05:48:53;;;;;;;;;;;;;;;-147.27;100.00;65176.34;5105624;28;19947;-54
2023/05/16 05:51:19;;;;;;;;;;;;;;;-147.27;100.00;65176.34;5109294;28;19935;-53
2023/05/16 05:53:44;;;;;;;;;;;;;;;-147.27;100.00;65176.34;5104286;28;19921;-52
2023/05/16 05:56:10;;;;;;;;;;;;;;;-147.27;100.00;65176.34;5110090;28;19916;-52
2023/05/16 05:58:35;;;;;;;;;;;;;;;-147.27;100.00;65176.34;5103762;28;19920;-51
2023/05/16 06:01:01;;;;;;;;;;;;;;;-147.27;100.00;65176.34;5107818;28;19983;-50
2023/05/16 06:03:26;;;;;;;;;;;;;;;-147.27;100.00;65176.34;5100097;28;19917;-51
2023/05/16 06:05:52;;;;;;;;;;;;;;;-147.27;100.00;65176.34;5108510;28;19913;-50
2023/05/16 06:08:17;;;;;;;;;;;;;;;-147.27;100.00;65176.34;5098680;28;19924;-51
2023/05/16 06:10:43;;;;;;;;;;;;;;;-147.27;100.00;65176.34;5106999;28;19916;-55
2023/05/16 06:13:08;;;;;;;;;;;;;;;-147.27;100.00;65176.34;5109481;28;19951;-51
2023/05/16 06:15:34;;;;;;;;;;;;;;;-147.27;100.00;65176.34;5107247;28;19916;-53
2023/05/16 06:17:59;;;;;;;;;;;;;;;-147.27;100.00;65176.34;5105926;28;19930;-55
2023/05/16 06:20:25;;;;;;;;;;;;;;;-147.27;100.00;65176.34;5106400;28;19916;-50
2023/05/16 06:22:50;;;;;;;;;;;;;;;-147.27;100.00;65176.34;5110881;28;19966;-55
2023/05/16 06:25:16;;;;;;;;;;;;;;;-147.27;100.00;65176.34;5106679;28;19951;-52
2023/05/16 06:27:41;;;;;;;;;;;;;;;-147.27;100.00;65176.34;5104841;28;19924;-51
2023/05/16 06:30:07;;;;;;;;;;;;;;;-147.27;100.00;65176.34;5104559;28;19915;-51
2023/05/16 06:32:33;;;;;;;;;;;;;;;-147.27;100.00;65176.34;5100641;28;19942;-53
2023/05/16 06:34:58;;;;;;;;;;;;;;;-147.27;100.00;65176.34;5111846;28;19984;-52
2023/05/16 06:37:25;;;;;;;;;;;;;;;-147.27;100.00;65176.34;5107755;28;19927;-54
2023/05/16 06:39:51;;;;;;;;;;;;;;;-147.27;100.00;65176.34;5109157;28;19947;-51
2023/05/16 06:42:16;;;;;;;;;;;;;;;-147.27;100.00;65176.34;5111397;28;20045;-57
2023/05/16 06:44:41;;;;;;;;;;;;;;;-147.27;100.00;65176.34;5110690;28;19920;-54
2023/05/16 06:47:07;;;;;;;;;;;;;;;-147.27;100.00;65176.34;5109937;28;19939;-50
2023/05/16 06:49:33;;;;;;;;;;;;;;;-147.27;100.00;65176.34;5112294;28;19916;-48
2023/05/16 06:51:58;;;;;;;;;;;;;;;-147.27;100.00;65176.34;5110151;28;19944;-51
2023/05/16 06:54:24;;;;;;;;;;;;;;;-147.27;100.00;65176.34;5108402;28;19927;-50
2023/05/16 06:56:49;;;;;;;;;;;;;;;-147.27;100.00;65176.34;5112433;28;19920;-51
2023/05/16 06:59:15;;;;;;;;;;;;;;;-147.27;100.00;65176.34;5105211;28;19908;-50
2023/05/16 07:01:41;;;;;;;;;;;;;;;-147.27;100.00;65176.34;5111865;28;19916;-50
2023/05/16 07:04:06;;;;;;;;;;;;;;;-147.27;100.00;65176.34;5109643;28;19928;-51
2023/05/16 07:06:32;;;;;;;;;;;;;;;-147.27;100.00;65176.34;5112425;28;19924;-52
2023/05/16 07:08:57;;;;;;;;;;;;;;;-147.27;100.00;65176.34;5103656;28;19923;-54
2023/05/16 07:11:23;;;;;;;;;;;;;;;-147.27;100.00;65176.34;5112199;28;19916;-56
2023/05/16 07:13:48;;;;;;;;;;;;;;;-147.27;100.00;65176.34;5107538;28;20343;-52
2023/05/16 07:16:14;;;;;;;;;;;;;;;-147.27;100.00;65176.34;5109450;28;19917;-53
2023/05/16 07:18:39;;;;;;;;;;;;;;;-147.27;100.00;65176.34;5109884;28;19924;-54
2023/05/16 07:21:05;;;;;;;;;;;;;;;-147.27;100.00;65176.34;5111581;28;19948;-53
2023/05/16 07:23:30;;;;;;;;;;;;;;;-147.27;100.00;65176.34;5109158;28;19938;-52
2023/05/16 07:25:56;;;;;;;;;;;;;;;-147.27;100.00;65176.34;5106990;28;19941;-54
2023/05/16 07:28:22;;;;;;;;;;;;;;;-147.27;100.00;65176.34;5106370;28;20020;-55
2023/05/16 07:30:47;;;;;;;;;;;;;;;-147.27;100.00;65176.34;5110207;28;19915;-52
2023/05/16 07:33:12;;;;;;;;;;;;;;;-147.27;100.00;65176.34;5108845;28;19927;-55
2023/05/16 07:35:38;;;;;;;;;;;;;;;-147.27;100.00;65176.34;5108863;28;19923;-53
2023/05/16 07:38:04;;;;;;;;;;;;;;;-147.27;100.00;65176.34;5109365;28;19916;-52
2023/05/16 07:40:29;;;;;;;;;;;;;;;-147.27;100.00;65176.34;5108655;28;19916;-53
2023/05/16 07:42:54;;;;;;;;;;;;;;;-147.27;100.00;65176.34;5089665;28;19979;-57
2023/05/16 07:45:20;;;;;;;;;;;;;;;-147.27;100.00;65176.34;5109613;28;20356;-50
2023/05/16 07:47:46;;;;;;;;;;;;;;;-147.27;100.00;65176.34;5106357;28;19983;-51
2023/05/16 07:50:11;;;;;;;;;;;;;;;-147.27;100.00;65176.34;5106774;28;19983;-49
2023/05/16 07:52:37;;;;;;;;;;;;;;;-147.27;100.00;65176.34;5111916;28;19920;-51
2023/05/16 07:55:02;;;;;;;;;;;;;;;-147.27;100.00;65176.34;5125334;28;19920;-52
2023/05/16 07:57:28;;;;;;;;;;;;;;;-147.27;100.00;65176.34;5126493;28;19951;-50
2023/05/16 07:59:54;;;;;;;;;;;;;;;-147.27;100.00;65176.34;5125661;28;19916;-53
2023/05/16 08:02:19;;;;;;;;;;;;;;;-147.27;100.00;65176.34;5126427;28;19947;-47
2023/05/16 08:04:44;;;;;;;;;;;;;;;-147.27;100.00;65176.34;5121967;28;19920;-53
2023/05/16 08:07:11;;;;;;;;;;;;;;;-147.27;100.00;65176.34;5118446;28;19947;-52
2023/05/16 08:09:37;;;;;;;;;;;;;;;-147.27;100.00;65176.34;5125432;28;19916;-49
2023/05/16 08:12:02;;;;;;;;;;;;;;;-147.27;100.00;65176.34;5119299;28;19912;-51
2023/05/16 08:14:31;;;;;;;;;;;;;;;-147.27;100.00;65176.34;5122086;28;19923;-51
2023/05/16 08:16:58;;;;;;;;;;;;;;;-147.27;100.00;65176.34;5123926;28;19919;-52
2023/05/16 08:19:23;;;;;;;;;;;;;;;-147.27;100.00;65176.34;5116619;28;19951;-49
2023/05/16 08:21:49;;;;;;;;;;;;;;;-147.27;100.00;65176.34;5116650;28;19920;-49
2023/05/16 08:24:14;;;;;;;;;;;;;;;-147.27;100.00;65176.34;5116624;28;19924;-53
2023/05/16 08:26:40;;;;;;;;;;;;;;;-147.27;100.00;65176.34;5118929;28;19916;-48
2023/05/16 08:29:05;;;;;;;;;;;;;;;-147.27;100.00;65176.34;5121575;28;19922;-51
2023/05/16 08:31:31;;;;;;;;;;;;;;;-147.27;100.00;65176.34;5117451;28;19947;-55
2023/05/16 08:33:56;;;;;;;;;;;;;;;-147.27;100.00;65176.34;5122005;28;19916;-50
2023/05/16 08:36:22;;;;;;;;;;;;;;;-147.27;100.00;65176.34;5123911;28;19916;-52
2023/05/16 08:38:51;;;;;;;;;;;;;;;-147.27;100.00;65176.34;5123758;28;19916;-53
2023/05/16 08:41:16;;;;;;;;;;;;;;;-147.27;100.00;65176.34;5117245;28;19916;-53
2023/05/16 08:43:42;;;;;;;;;;;;;;;-147.27;100.00;65176.34;5128349;28;20003;-54
2023/05/16 08:46:07;;;;;;;;;;;;;;;-147.27;100.00;65176.34;5119846;28;20061;-49
2023/05/16 08:48:33;;;;;;;;;;;;;;;-147.27;100.00;65176.34;5118357;28;19916;-53
2023/05/16 08:51:01;;;;;;;;;;;;;;;-147.27;100.00;65176.34;5121624;28;19912;-53
2023/05/16 08:53:30;;;;;;;;;;;;;;;-147.27;100.00;65176.34;5119136;28;19935;-52
2023/05/16 08:55:56;;;;;;;;;;;;;;;-147.27;100.00;65176.34;5105264;28;19954;-50
2023/05/16 08:58:22;;;;;;;;;;;;;;;-147.27;100.00;65176.34;5107862;28;19991;-51
2023/05/16 09:00:47;;;;;;;;;;;;;;;-147.27;100.00;65176.34;5106109;28;19923;-48
2023/05/16 09:03:13;;;;;;;;;;;;;;;-147.27;100.00;65176.34;5109989;28;19935;-51
2023/05/16 09:05:39;;;;;;;;;;;;;;;-147.27;100.00;65176.34;5105387;28;19927;-52
2023/05/16 09:08:05;;;;;;;;;;;;;;;-147.27;100.00;65176.34;5102706;28;19916;-49
2023/05/16 09:10:30;;;;;;;;;;;;;;;-147.27;100.00;65176.34;5108401;28;19946;-54
2023/05/16 09:12:56;;;;;;;;;;;;;;;-147.27;100.00;65176.34;5102188;28;19939;-50
2023/05/16 09:15:21;;;;;;;;;;;;;;;-147.27;100.00;65176.34;5102092;28;20004;-48
2023/05/16 09:17:47;;;;;;;;;;;;;;;-147.27;100.00;65176.34;5101919;28;19920;-53
2023/05/16 09:20:14;;;;;;;;;;;;;;;-147.27;100.00;65176.34;5103395;28;19987;-50
2023/05/16 09:22:49;;;;;;;;;;;;;;;-147.27;100.00;65176.34;5101782;28;20019;-48
2023/05/16 09:25:16;;;;;;;;;;;;;;;-147.27;100.00;65176.34;5099547;28;19939;-52
2023/05/16 09:27:41;;;;;;;;;;;;;;;-147.27;100.00;65176.34;5101444;28;19916;-52
2023/05/16 09:30:07;;;;;;;;;;;;;;;-147.27;100.00;65176.34;5106102;28;19923;-49
2023/05/16 09:32:32;;;;;;;;;;;;;;;-147.27;100.00;65176.34;5105725;28;19998;-50
2023/05/16 09:34:58;;;;;;;;;;;;;;;-147.27;100.00;65176.34;5102716;28;19924;-55
2023/05/16 09:37:24;;;;;;;;;;;;;;;-147.27;100.00;65176.34;5088236;28;19915;-53
2023/05/16 09:39:56;;;;;;;;;;;;;;;-147.27;100.00;65176.34;5104165;28;19977;-50
2023/05/16 09:42:21;;;;;;;;;;;;;;;-147.27;100.00;65176.34;5100319;28;19927;-51
2023/05/16 09:44:51;;;;;;;;;;;;;;;-147.27;100.00;65176.34;5106794;28;19920;-53
2023/05/16 09:47:17;;;;;;;;;;;;;;;-147.27;100.00;65176.34;5100381;28;19951;-55
2023/05/16 09:49:43;;;;;;;;;;;;;;;-147.27;100.00;65176.34;5103106;28;19923;-51
2023/05/16 09:52:09;;;;;;;;;;;;;;;-147.27;100.00;65176.34;5103380;28;19916;-52
2023/05/16 09:54:35;;;;;;;;;;;;;;;-147.27;100.00;65176.34;5104298;28;19955;-51
2023/05/16 09:57:00;;;;;;;;;;;;;;;-147.27;100.00;65176.34;5119778;28;19916;-55
2023/05/16 09:59:29;;;;;;;;;;;;;;;-147.27;100.00;65176.34;5107517;28;19979;-51
2023/05/16 10:01:56;;;;;;;;;;;;;;;-147.27;100.00;65176.34;5099499;28;19916;-51
2023/05/16 10:04:22;;;;;;;;;;;;;;;-147.27;100.00;65176.34;5106462;28;19916;-49
2023/05/16 10:06:49;;;;;;;;;;;;;;;-147.27;100.00;65176.34;5103153;28;19923;-52
2023/05/16 10:09:15;;;;;;;;;;;;;;;-147.27;100.00;65176.34;5101974;28;19943;-53
2023/05/16 10:11:41;;;;;;;;;;;;;;;-147.27;100.00;65176.34;5106004;28;19919;-50
2023/05/16 10:14:08;;;;;;;;;;;;;;;-147.27;100.00;65176.34;5103654;28;19927;-50
2023/05/16 10:16:34;;;;;;;;;;;;;;;-147.27;100.00;65176.34;5101012;28;19976;-52
2023/05/16 10:19:01;;;;;;;;;;;;;;;-147.27;100.00;65176.34;5105298;28;19938;-49
2023/05/16 10:21:28;;;;;;;;;;;;;;;-147.27;100.00;65176.34;5098861;28;19924;-54
2023/05/16 10:23:55;;;;;;;;;;;;;;;-147.27;100.00;65176.34;5105034;28;19935;-48
2023/05/16 10:26:21;;;;;;;;;;;;;;;-147.27;100.00;65176.34;5101313;28;19920;-49
2023/05/16 10:28:47;;;;;;;;;;;;;;;-147.27;100.00;65176.34;5085802;28;19917;-52
2023/05/16 10:31:13;;;;;;;;;;;;;;;-147.27;100.00;65176.34;5100680;28;19983;-53
2023/05/16 10:33:39;;;;;;;;;;;;;;;-147.27;100.00;65176.34;5101184;28;19916;-47
2023/05/16 10:36:05;;;;;;;;;;;;;;;-147.27;100.00;65176.34;5100561;28;19916;-52
2023/05/16 10:38:32;;;;;;;;;;;;;;;-147.27;100.00;65176.34;5101718;28;19913;-52
2023/05/16 10:40:58;;;;;;;;;;;;;;;-147.27;100.00;65176.34;5104250;28;20014;-50
2023/05/16 10:43:29;;;;;;;;;;;;;;;-147.27;100.00;65176.34;5100323;28;19915;-55
2023/05/16 10:46:06;;;;;;;;;;;;;;;-147.27;100.00;65176.34;5101807;28;19927;-50
2023/05/16 10:48:32;;;;;;;;;;;;;;;-147.27;100.00;65176.34;5106301;28;19920;-50
2023/05/16 10:50:58;;;;;;;;;;;;;;;-147.27;100.00;65176.34;5099914;28;19916;-51
2023/05/16 10:53:34;;;;;;;;;;;;;;;-147.27;100.00;65176.34;5106417;28;19924;-49
2023/05/16 10:56:00;;;;;;;;;;;;;;;-147.27;100.00;65176.34;5114085;28;19948;-51
2023/05/16 10:58:37;;;;;;;;;;;;;;;-147.27;100.00;65176.34;5114046;28;19951;-51
2023/05/16 11:01:23;;;;;;;;;;;;;;;-147.27;100.00;65176.34;5114287;28;19916;-49
2023/05/16 11:04:01;;;;;;;;;;;;;;;-147.27;100.00;65176.34;5113380;28;19923;-51
2023/05/16 11:06:30;;;;;;;;;;;;;;;-147.27;100.00;65176.34;5118901;28;19932;-51
2023/05/16 11:09:05;;;;;;;;;;;;;;;-147.27;100.00;65176.34;5124057;28;19924;-54
2023/05/16 11:11:50;;;;;;;;;;;;;;;-147.27;100.00;65176.34;5121796;28;19912;-53
2023/05/16 11:14:31;;;;;;;;;;;;;;;-147.27;100.00;65176.34;5123975;28;19916;-54
2023/05/16 11:17:01;;;;;;;;;;;;;;;-147.27;100.00;65176.34;5120661;28;19915;-53
2023/05/16 11:19:44;;;;;;;;;;;;;;;-147.27;100.00;65176.34;5123293;28;19916;-49
2023/05/16 11:22:23;;;;;;;;;;;;;;;-147.27;100.00;65176.34;5121040;28;19916;-52
2023/05/16 11:24:53;;;;;;;;;;;;;;;-147.27;100.00;65176.34;5123547;28;19919;-56
2023/05/16 11:27:29;;;;;;;;;;;;;;;-147.27;100.00;65176.34;5124679;28;19922;-51
2023/05/16 11:29:58;;;;;;;;;;;;;;;-147.27;100.00;65176.34;5126348;28;19922;-51
2023/05/16 11:32:23;;;;;;;;;;;;;;;-147.27;100.00;65176.34;5126549;28;19923;-49
2023/05/16 11:34:50;;;;;;;;;;;;;;;-147.27;100.00;65176.34;5128588;28;19916;-55
2023/05/16 11:37:16;;;;;;;;;;;;;;;-147.27;100.00;65176.34;5129120;28;19995;-51
2023/05/16 11:39:42;;;;;;;;;;;;;;;-147.27;100.00;65176.34;5126022;28;19964;-56
2023/05/16 11:42:08;;;;;;;;;;;;;;;-147.27;100.00;65176.34;5126403;28;19987;-54
2023/05/16 11:44:34;;;;;;;;;;;;;;;-147.27;100.00;65176.34;5126679;28;19927;-51
2023/05/16 11:47:01;;;;;;;;;;;;;;;-147.27;100.00;65176.34;5128605;28;19926;-51
2023/05/16 11:49:27;;;;;;;;;;;;;;;-147.27;100.00;65176.34;5123983;28;19916;-54
2023/05/16 11:51:53;;;;;;;;;;;;;;;-147.27;100.00;65176.34;5126034;28;19979;-50
2023/05/16 11:54:18;;;;;;;;;;;;;;;-147.27;100.00;65176.34;5125426;28;19938;-53
2023/05/16 11:56:44;;;;;;;;;;;;;;;-147.27;100.00;65176.34;5124873;28;19998;-53
2023/05/16 11:59:10;;;;;;;;;;;;;;;-147.27;100.00;65176.34;5121774;28;19928;-55
2023/05/16 12:01:37;;;;;;;;;;;;;;;-147.27;100.00;65176.34;5123829;28;19920;-55
2023/05/16 12:04:11;;;;;;;;;;;;;;;-147.27;100.00;65176.34;5120985;28;21218;-55
2023/05/16 12:06:37;;;;;;;;;;;;;;;-147.27;100.00;65176.34;5121735;28;19916;-52
2023/05/16 12:09:09;;;;;;;;;;;;;;;-147.27;100.00;65176.34;5120462;28;19931;-54
2023/05/16 12:11:35;;;;;;;;;;;;;;;-147.27;100.00;65176.34;5118354;28;19988;-53
2023/05/16 12:14:01;;;;;;;;;;;;;;;-147.27;100.00;65176.34;5123359;28;19916;-53
2023/05/16 12:16:27;;;;;;;;;;;;;;;-147.27;100.00;65176.34;5119264;28;19923;-50